Terminal Aerodrome Forecast
Issued by NWS

Home | Current Version | Previous Version | Text Only | Print | Product List | Glossary Off
Versions: 1 2 3 4 5 6 7 8 9 10 11 12 13 14 15 16 17 18 19 20 21 22 23 24 25 26 27 28 29 30 31 32 33 34 35 36 37 38 39 40 41 42

000
FTUS43 KGRB 282300
TAFRHI
TAF
KRHI 282340Z 2900/2924 16005KT P6SM SCT030 OVC040
     FM290400 13006KT 4SM -SHRA BR OVC025
     FM290900 12005KT 3SM RA BR OVC020
     FM291500 17008KT 5SM -SHRA SCT015 OVC023
      TEMPO 2917/2921 2SM TSRA OVC015CB
     FM292100 19008KT 5SM -SHRA BKN015 OVC025=

USA.gov is the U.S. government's official web portal to all federal, state and local government web resources and services.